sensor_id;sensor_type;location;lat;lon;timestamp;P1;durP1;ratioP1;P2;durP2;ratioP2
17384;SDS011;8810;48.680;8.894;2022-12-08T00:01:29;13.63;;;6.47;;
17384;SDS011;8810;48.680;8.894;2022-12-08T00:03:57;12.50;;;5.87;;
17384;SDS011;8810;48.680;8.894;2022-12-08T00:06:26;13.23;;;5.83;;
17384;SDS011;8810;48.680;8.894;2022-12-08T00:09:12;12.30;;;5.90;;
17384;SDS011;8810;48.680;8.894;2022-12-08T00:11:51;10.93;;;5.37;;
17384;SDS011;8810;48.680;8.894;2022-12-08T00:14:21;12.17;;;5.43;;
17384;SDS011;8810;48.680;8.894;2022-12-08T00:16:50;11.47;;;5.53;;
17384;SDS011;8810;48.680;8.894;2022-12-08T00:19:17;11.87;;;6.13;;
17384;SDS011;8810;48.680;8.894;2022-12-08T00:21:43;15.40;;;7.00;;
17384;SDS011;8810;48.680;8.894;2022-12-08T00:24:10;13.93;;;6.43;;
17384;SDS011;8810;48.680;8.894;2022-12-08T00:26:37;12.13;;;6.47;;
17384;SDS011;8810;48.680;8.894;2022-12-08T00:29:06;12.37;;;5.87;;
17384;SDS011;8810;48.680;8.894;2022-12-08T00:31:33;11.03;;;6.37;;
17384;SDS011;8810;48.680;8.894;2022-12-08T00:34:00;11.60;;;5.43;;
17384;SDS011;8810;48.680;8.894;2022-12-08T00:36:27;13.43;;;5.60;;
17384;SDS011;8810;48.680;8.894;2022-12-08T00:38:54;13.37;;;5.97;;
17384;SDS011;8810;48.680;8.894;2022-12-08T00:41:22;12.00;;;5.57;;
17384;SDS011;8810;48.680;8.894;2022-12-08T00:44:05;12.10;;;6.07;;
17384;SDS011;8810;48.680;8.894;2022-12-08T00:46:32;12.40;;;6.20;;
17384;SDS011;8810;48.680;8.894;2022-12-08T00:48:59;11.97;;;5.73;;
17384;SDS011;8810;48.680;8.894;2022-12-08T00:51:26;11.80;;;6.33;;
17384;SDS011;8810;48.680;8.894;2022-12-08T00:53:53;13.47;;;6.73;;
17384;SDS011;8810;48.680;8.894;2022-12-08T00:56:20;11.27;;;6.13;;
17384;SDS011;8810;48.680;8.894;2022-12-08T00:58:47;10.23;;;6.07;;
17384;SDS011;8810;48.680;8.894;2022-12-08T01:01:15;13.20;;;6.43;;
17384;SDS011;8810;48.680;8.894;2022-12-08T01:03:42;10.43;;;5.47;;
17384;SDS011;8810;48.680;8.894;2022-12-08T01:06:09;12.03;;;5.93;;
17384;SDS011;8810;48.680;8.894;2022-12-08T01:08:36;11.90;;;5.73;;
17384;SDS011;8810;48.680;8.894;2022-12-08T01:11:04;11.43;;;5.93;;
17384;SDS011;8810;48.680;8.894;2022-12-08T01:13:32;14.23;;;5.87;;
17384;SDS011;8810;48.680;8.894;2022-12-08T01:15:59;11.33;;;5.63;;
17384;SDS011;8810;48.680;8.894;2022-12-08T01:18:27;12.23;;;6.33;;
17384;SDS011;8810;48.680;8.894;2022-12-08T01:20:55;10.83;;;5.70;;
17384;SDS011;8810;48.680;8.894;2022-12-08T01:23:27;10.83;;;5.23;;
17384;SDS011;8810;48.680;8.894;2022-12-08T01:25:54;11.43;;;5.83;;
17384;SDS011;8810;48.680;8.894;2022-12-08T01:28:21;11.97;;;5.67;;
17384;SDS011;8810;48.680;8.894;2022-12-08T01:30:47;10.03;;;4.70;;
17384;SDS011;8810;48.680;8.894;2022-12-08T01:33:14;12.17;;;5.90;;
17384;SDS011;8810;48.680;8.894;2022-12-08T01:35:42;11.30;;;5.63;;
17384;SDS011;8810;48.680;8.894;2022-12-08T01:38:09;12.10;;;5.87;;
17384;SDS011;8810;48.680;8.894;2022-12-08T01:40:36;17.17;;;5.73;;
17384;SDS011;8810;48.680;8.894;2022-12-08T01:43:03;12.80;;;6.57;;
17384;SDS011;8810;48.680;8.894;2022-12-08T01:45:30;10.90;;;5.60;;
17384;SDS011;8810;48.680;8.894;2022-12-08T01:47:59;10.63;;;5.53;;
17384;SDS011;8810;48.680;8.894;2022-12-08T01:50:30;10.43;;;5.27;;
17384;SDS011;8810;48.680;8.894;2022-12-08T01:53:00;10.60;;;5.40;;
17384;SDS011;8810;48.680;8.894;2022-12-08T01:55:34;10.00;;;5.03;;
17384;SDS011;8810;48.680;8.894;2022-12-08T01:58:09;9.80;;;4.80;;
17384;SDS011;8810;48.680;8.894;2022-12-08T02:00:38;10.17;;;5.30;;
17384;SDS011;8810;48.680;8.894;2022-12-08T02:03:06;7.47;;;4.73;;
17384;SDS011;8810;48.680;8.894;2022-12-08T02:05:38;11.53;;;4.87;;
17384;SDS011;8810;48.680;8.894;2022-12-08T02:08:09;10.57;;;5.07;;
17384;SDS011;8810;48.680;8.894;2022-12-08T02:10:38;14.17;;;5.40;;
17384;SDS011;8810;48.680;8.894;2022-12-08T02:13:07;9.53;;;4.83;;
17384;SDS011;8810;48.680;8.894;2022-12-08T02:15:37;9.00;;;5.47;;
17384;SDS011;8810;48.680;8.894;2022-12-08T02:18:20;10.30;;;5.47;;
17384;SDS011;8810;48.680;8.894;2022-12-08T02:21:05;10.27;;;4.83;;
17384;SDS011;8810;48.680;8.894;2022-12-08T02:23:40;8.87;;;4.90;;
17384;SDS011;8810;48.680;8.894;2022-12-08T02:29:24;10.90;;;5.10;;
17384;SDS011;8810;48.680;8.894;2022-12-08T02:32:07;10.00;;;4.53;;
17384;SDS011;8810;48.680;8.894;2022-12-08T02:34:50;20.00;;;7.47;;
17384;SDS011;8810;48.680;8.894;2022-12-08T02:37:22;14.20;;;7.10;;
17384;SDS011;8810;48.680;8.894;2022-12-08T02:39:57;11.97;;;5.93;;
17384;SDS011;8810;48.680;8.894;2022-12-08T02:42:29;10.40;;;5.40;;
17384;SDS011;8810;48.680;8.894;2022-12-08T02:45:04;13.10;;;5.57;;
17384;SDS011;8810;48.680;8.894;2022-12-08T02:47:35;12.77;;;6.03;;
17384;SDS011;8810;48.680;8.894;2022-12-08T02:50:04;12.37;;;6.00;;
17384;SDS011;8810;48.680;8.894;2022-12-08T02:52:40;12.57;;;5.17;;
17384;SDS011;8810;48.680;8.894;2022-12-08T02:55:10;9.63;;;5.03;;
17384;SDS011;8810;48.680;8.894;2022-12-08T02:57:44;11.17;;;5.33;;
17384;SDS011;8810;48.680;8.894;2022-12-08T03:00:22;9.47;;;4.77;;
17384;SDS011;8810;48.680;8.894;2022-12-08T03:02:57;10.83;;;4.77;;
17384;SDS011;8810;48.680;8.894;2022-12-08T03:05:45;9.97;;;5.10;;
17384;SDS011;8810;48.680;8.894;2022-12-08T03:08:21;10.10;;;4.33;;
17384;SDS011;8810;48.680;8.894;2022-12-08T03:10:55;9.33;;;4.70;;
17384;SDS011;8810;48.680;8.894;2022-12-08T03:13:28;7.53;;;4.10;;
17384;SDS011;8810;48.680;8.894;2022-12-08T03:15:59;7.80;;;4.23;;
17384;SDS011;8810;48.680;8.894;2022-12-08T03:18:28;7.97;;;4.17;;
17384;SDS011;8810;48.680;8.894;2022-12-08T03:20:58;8.43;;;4.60;;
17384;SDS011;8810;48.680;8.894;2022-12-08T03:23:26;9.73;;;4.07;;
17384;SDS011;8810;48.680;8.894;2022-12-08T03:25:55;8.07;;;4.30;;
17384;SDS011;8810;48.680;8.894;2022-12-08T03:28:25;9.00;;;4.07;;
17384;SDS011;8810;48.680;8.894;2022-12-08T03:30:52;8.80;;;4.50;;
17384;SDS011;8810;48.680;8.894;2022-12-08T03:33:23;8.07;;;4.10;;
17384;SDS011;8810;48.680;8.894;2022-12-08T03:35:52;10.00;;;4.50;;
17384;SDS011;8810;48.680;8.894;2022-12-08T03:38:22;8.67;;;4.47;;
17384;SDS011;8810;48.680;8.894;2022-12-08T03:40:48;7.73;;;4.50;;
17384;SDS011;8810;48.680;8.894;2022-12-08T03:43:29;9.40;;;5.03;;
17384;SDS011;8810;48.680;8.894;2022-12-08T03:45:56;14.07;;;5.33;;
17384;SDS011;8810;48.680;8.894;2022-12-08T03:48:23;10.77;;;5.23;;
17384;SDS011;8810;48.680;8.894;2022-12-08T03:50:49;9.27;;;4.70;;
17384;SDS011;8810;48.680;8.894;2022-12-08T03:53:16;10.07;;;5.00;;
17384;SDS011;8810;48.680;8.894;2022-12-08T03:55:44;14.00;;;5.03;;
17384;SDS011;8810;48.680;8.894;2022-12-08T03:58:11;9.63;;;4.70;;
17384;SDS011;8810;48.680;8.894;2022-12-08T04:00:38;12.47;;;5.30;;
17384;SDS011;8810;48.680;8.894;2022-12-08T04:03:05;8.77;;;4.47;;
17384;SDS011;8810;48.680;8.894;2022-12-08T04:05:31;8.83;;;4.67;;
17384;SDS011;8810;48.680;8.894;2022-12-08T04:07:58;7.43;;;4.17;;
17384;SDS011;8810;48.680;8.894;2022-12-08T04:10:25;10.57;;;5.10;;
17384;SDS011;8810;48.680;8.894;2022-12-08T04:12:54;11.47;;;5.07;;
17384;SDS011;8810;48.680;8.894;2022-12-08T04:15:22;9.73;;;4.80;;
17384;SDS011;8810;48.680;8.894;2022-12-08T04:17:49;6.20;;;3.77;;
17384;SDS011;8810;48.680;8.894;2022-12-08T04:20:16;7.67;;;4.00;;
17384;SDS011;8810;48.680;8.894;2022-12-08T04:22:43;8.17;;;4.30;;
17384;SDS011;8810;48.680;8.894;2022-12-08T04:25:09;8.63;;;4.73;;
17384;SDS011;8810;48.680;8.894;2022-12-08T04:27:36;9.87;;;4.63;;
17384;SDS011;8810;48.680;8.894;2022-12-08T04:30:05;7.90;;;4.73;;
17384;SDS011;8810;48.680;8.894;2022-12-08T04:32:33;11.13;;;4.87;;
17384;SDS011;8810;48.680;8.894;2022-12-08T04:34:59;8.77;;;4.60;;
17384;SDS011;8810;48.680;8.894;2022-12-08T04:37:26;8.70;;;4.40;;
17384;SDS011;8810;48.680;8.894;2022-12-08T04:39:53;13.10;;;5.83;;
17384;SDS011;8810;48.680;8.894;2022-12-08T04:42:20;11.47;;;5.20;;
17384;SDS011;8810;48.680;8.894;2022-12-08T04:44:47;10.20;;;4.53;;
17384;SDS011;8810;48.680;8.894;2022-12-08T04:47:15;8.80;;;5.07;;
17384;SDS011;8810;48.680;8.894;2022-12-08T04:49:42;11.87;;;5.10;;
17384;SDS011;8810;48.680;8.894;2022-12-08T04:52:09;12.87;;;5.53;;
17384;SDS011;8810;48.680;8.894;2022-12-08T04:54:35;10.90;;;5.03;;
17384;SDS011;8810;48.680;8.894;2022-12-08T04:57:02;12.63;;;5.37;;
17384;SDS011;8810;48.680;8.894;2022-12-08T04:59:29;13.53;;;5.80;;
17384;SDS011;8810;48.680;8.894;2022-12-08T05:01:56;10.33;;;5.37;;
17384;SDS011;8810;48.680;8.894;2022-12-08T05:04:24;12.23;;;5.97;;
17384;SDS011;8810;48.680;8.894;2022-12-08T05:06:51;10.00;;;5.43;;
17384;SDS011;8810;48.680;8.894;2022-12-08T05:09:18;10.93;;;6.00;;
17384;SDS011;8810;48.680;8.894;2022-12-08T05:11:45;13.87;;;6.70;;
17384;SDS011;8810;48.680;8.894;2022-12-08T05:14:12;8.73;;;5.13;;
17384;SDS011;8810;48.680;8.894;2022-12-08T05:16:42;11.37;;;5.30;;
17384;SDS011;8810;48.680;8.894;2022-12-08T05:19:10;12.80;;;6.03;;
17384;SDS011;8810;48.680;8.894;2022-12-08T05:21:39;12.23;;;5.83;;
17384;SDS011;8810;48.680;8.894;2022-12-08T05:24:06;10.97;;;5.63;;
17384;SDS011;8810;48.680;8.894;2022-12-08T05:26:33;10.57;;;5.53;;
17384;SDS011;8810;48.680;8.894;2022-12-08T05:29:00;9.03;;;4.63;;
17384;SDS011;8810;48.680;8.894;2022-12-08T05:31:26;11.43;;;4.60;;
17384;SDS011;8810;48.680;8.894;2022-12-08T05:33:53;11.37;;;5.30;;
17384;SDS011;8810;48.680;8.894;2022-12-08T05:36:20;9.40;;;4.97;;
17384;SDS011;8810;48.680;8.894;2022-12-08T05:38:50;9.83;;;4.73;;
17384;SDS011;8810;48.680;8.894;2022-12-08T05:41:18;8.90;;;4.73;;
17384;SDS011;8810;48.680;8.894;2022-12-08T05:43:46;9.87;;;4.73;;
17384;SDS011;8810;48.680;8.894;2022-12-08T05:46:13;9.40;;;4.87;;
17384;SDS011;8810;48.680;8.894;2022-12-08T05:48:40;11.43;;;4.90;;
17384;SDS011;8810;48.680;8.894;2022-12-08T05:51:11;8.80;;;4.53;;
17384;SDS011;8810;48.680;8.894;2022-12-08T05:53:41;11.03;;;5.23;;
17384;SDS011;8810;48.680;8.894;2022-12-08T05:56:09;9.67;;;5.10;;
17384;SDS011;8810;48.680;8.894;2022-12-08T05:58:36;11.47;;;4.50;;
17384;SDS011;8810;48.680;8.894;2022-12-08T06:01:03;10.60;;;5.13;;
17384;SDS011;8810;48.680;8.894;2022-12-08T06:03:31;8.03;;;4.87;;
17384;SDS011;8810;48.680;8.894;2022-12-08T06:05:58;12.13;;;5.10;;
17384;SDS011;8810;48.680;8.894;2022-12-08T06:08:24;8.93;;;4.37;;
17384;SDS011;8810;48.680;8.894;2022-12-08T06:10:51;11.57;;;5.67;;
17384;SDS011;8810;48.680;8.894;2022-12-08T06:13:19;10.80;;;5.47;;
17384;SDS011;8810;48.680;8.894;2022-12-08T06:15:46;12.27;;;5.93;;
17384;SDS011;8810;48.680;8.894;2022-12-08T06:18:13;10.33;;;5.50;;
17384;SDS011;8810;48.680;8.894;2022-12-08T06:20:40;13.33;;;5.23;;
17384;SDS011;8810;48.680;8.894;2022-12-08T06:23:06;12.20;;;5.47;;
17384;SDS011;8810;48.680;8.894;2022-12-08T06:25:33;13.33;;;6.70;;
17384;SDS011;8810;48.680;8.894;2022-12-08T06:28:00;12.67;;;6.10;;
17384;SDS011;8810;48.680;8.894;2022-12-08T06:30:30;13.83;;;6.70;;
17384;SDS011;8810;48.680;8.894;2022-12-08T06:32:57;19.30;;;9.30;;
17384;SDS011;8810;48.680;8.894;2022-12-08T06:35:26;17.93;;;8.07;;
17384;SDS011;8810;48.680;8.894;2022-12-08T06:37:52;18.67;;;8.70;;
17384;SDS011;8810;48.680;8.894;2022-12-08T06:40:19;17.80;;;8.87;;
17384;SDS011;8810;48.680;8.894;2022-12-08T06:42:46;21.30;;;9.40;;
17384;SDS011;8810;48.680;8.894;2022-12-08T06:45:13;21.57;;;10.67;;
17384;SDS011;8810;48.680;8.894;2022-12-08T06:47:43;37.90;;;17.30;;
17384;SDS011;8810;48.680;8.894;2022-12-08T06:50:10;42.60;;;15.33;;
17384;SDS011;8810;48.680;8.894;2022-12-08T06:52:38;35.10;;;15.13;;
17384;SDS011;8810;48.680;8.894;2022-12-08T06:55:07;26.60;;;11.13;;
17384;SDS011;8810;48.680;8.894;2022-12-08T06:57:34;22.70;;;10.53;;
17384;SDS011;8810;48.680;8.894;2022-12-08T07:00:01;15.77;;;8.03;;
17384;SDS011;8810;48.680;8.894;2022-12-08T07:02:29;12.43;;;6.70;;
17384;SDS011;8810;48.680;8.894;2022-12-08T07:04:58;11.93;;;6.60;;
17384;SDS011;8810;48.680;8.894;2022-12-08T07:07:25;17.43;;;7.13;;
17384;SDS011;8810;48.680;8.894;2022-12-08T07:09:52;12.50;;;6.50;;
17384;SDS011;8810;48.680;8.894;2022-12-08T07:12:19;13.53;;;6.07;;
17384;SDS011;8810;48.680;8.894;2022-12-08T07:14:45;13.53;;;5.97;;
17384;SDS011;8810;48.680;8.894;2022-12-08T07:17:12;10.93;;;5.83;;
17384;SDS011;8810;48.680;8.894;2022-12-08T07:19:39;13.10;;;5.97;;
17384;SDS011;8810;48.680;8.894;2022-12-08T07:22:07;11.03;;;5.90;;
17384;SDS011;8810;48.680;8.894;2022-12-08T07:24:34;10.43;;;5.83;;
17384;SDS011;8810;48.680;8.894;2022-12-08T07:27:01;11.80;;;5.97;;
17384;SDS011;8810;48.680;8.894;2022-12-08T07:29:27;12.57;;;5.83;;
17384;SDS011;8810;48.680;8.894;2022-12-08T07:31:54;12.07;;;5.57;;
17384;SDS011;8810;48.680;8.894;2022-12-08T07:34:21;14.73;;;6.67;;
17384;SDS011;8810;48.680;8.894;2022-12-08T07:36:48;17.43;;;7.87;;
17384;SDS011;8810;48.680;8.894;2022-12-08T07:39:16;18.53;;;7.67;;
17384;SDS011;8810;48.680;8.894;2022-12-08T07:41:43;19.63;;;7.43;;
17384;SDS011;8810;48.680;8.894;2022-12-08T07:44:10;9.40;;;5.17;;
17384;SDS011;8810;48.680;8.894;2022-12-08T07:46:37;10.87;;;5.90;;
17384;SDS011;8810;48.680;8.894;2022-12-08T07:49:03;12.33;;;6.07;;
17384;SDS011;8810;48.680;8.894;2022-12-08T07:51:30;12.63;;;5.90;;
17384;SDS011;8810;48.680;8.894;2022-12-08T07:53:57;12.47;;;5.07;;
17384;SDS011;8810;48.680;8.894;2022-12-08T07:56:25;9.90;;;4.90;;
17384;SDS011;8810;48.680;8.894;2022-12-08T07:58:52;13.07;;;5.30;;
17384;SDS011;8810;48.680;8.894;2022-12-08T08:01:20;12.10;;;5.50;;
17384;SDS011;8810;48.680;8.894;2022-12-08T08:03:49;13.30;;;5.50;;
17384;SDS011;8810;48.680;8.894;2022-12-08T08:06:16;11.43;;;5.80;;
17384;SDS011;8810;48.680;8.894;2022-12-08T08:08:42;9.73;;;5.00;;
17384;SDS011;8810;48.680;8.894;2022-12-08T08:11:09;9.03;;;4.87;;
17384;SDS011;8810;48.680;8.894;2022-12-08T08:13:37;11.40;;;5.43;;
17384;SDS011;8810;48.680;8.894;2022-12-08T08:16:05;9.83;;;5.57;;
17384;SDS011;8810;48.680;8.894;2022-12-08T08:18:34;12.47;;;6.13;;
17384;SDS011;8810;48.680;8.894;2022-12-08T08:21:02;17.30;;;6.63;;
17384;SDS011;8810;48.680;8.894;2022-12-08T08:23:29;16.83;;;6.17;;
17384;SDS011;8810;48.680;8.894;2022-12-08T08:25:57;13.00;;;6.87;;
17384;SDS011;8810;48.680;8.894;2022-12-08T08:28:25;14.43;;;7.23;;
17384;SDS011;8810;48.680;8.894;2022-12-08T08:30:53;18.23;;;8.00;;
17384;SDS011;8810;48.680;8.894;2022-12-08T08:33:21;18.10;;;8.03;;
17384;SDS011;8810;48.680;8.894;2022-12-08T08:35:48;17.23;;;8.53;;
17384;SDS011;8810;48.680;8.894;2022-12-08T08:38:15;12.77;;;7.20;;
17384;SDS011;8810;48.680;8.894;2022-12-08T08:40:42;16.03;;;7.80;;
17384;SDS011;8810;48.680;8.894;2022-12-08T08:43:09;11.67;;;6.03;;
17384;SDS011;8810;48.680;8.894;2022-12-08T08:45:54;10.90;;;5.50;;
17384;SDS011;8810;48.680;8.894;2022-12-08T08:48:22;11.43;;;6.20;;
17384;SDS011;8810;48.680;8.894;2022-12-08T08:50:49;12.87;;;6.47;;
17384;SDS011;8810;48.680;8.894;2022-12-08T08:53:15;13.80;;;7.27;;
17384;SDS011;8810;48.680;8.894;2022-12-08T08:55:42;23.83;;;14.77;;
17384;SDS011;8810;48.680;8.894;2022-12-08T08:58:09;16.40;;;10.13;;
17384;SDS011;8810;48.680;8.894;2022-12-08T09:00:36;14.73;;;7.60;;
17384;SDS011;8810;48.680;8.894;2022-12-08T09:03:04;13.30;;;6.77;;
17384;SDS011;8810;48.680;8.894;2022-12-08T09:05:31;12.40;;;7.20;;
17384;SDS011;8810;48.680;8.894;2022-12-08T09:07:58;14.63;;;8.37;;
17384;SDS011;8810;48.680;8.894;2022-12-08T09:10:25;20.63;;;9.93;;
17384;SDS011;8810;48.680;8.894;2022-12-08T09:12:52;25.80;;;12.43;;
17384;SDS011;8810;48.680;8.894;2022-12-08T09:15:19;17.20;;;8.10;;
17384;SDS011;8810;48.680;8.894;2022-12-08T09:17:46;10.13;;;5.33;;
17384;SDS011;8810;48.680;8.894;2022-12-08T09:20:14;8.33;;;4.93;;
17384;SDS011;8810;48.680;8.894;2022-12-08T09:22:41;9.00;;;4.63;;
17384;SDS011;8810;48.680;8.894;2022-12-08T09:25:08;7.03;;;4.57;;
17384;SDS011;8810;48.680;8.894;2022-12-08T09:27:35;10.20;;;4.70;;
17384;SDS011;8810;48.680;8.894;2022-12-08T09:30:02;9.63;;;4.90;;
17384;SDS011;8810;48.680;8.894;2022-12-08T09:32:29;10.90;;;5.80;;
17384;SDS011;8810;48.680;8.894;2022-12-08T09:34:56;7.30;;;4.03;;
17384;SDS011;8810;48.680;8.894;2022-12-08T09:37:24;8.10;;;4.07;;
17384;SDS011;8810;48.680;8.894;2022-12-08T09:39:51;7.23;;;4.27;;
17384;SDS011;8810;48.680;8.894;2022-12-08T09:42:20;7.17;;;4.00;;
17384;SDS011;8810;48.680;8.894;2022-12-08T09:44:59;5.93;;;3.93;;
17384;SDS011;8810;48.680;8.894;2022-12-08T09:47:31;6.23;;;3.87;;
17384;SDS011;8810;48.680;8.894;2022-12-08T09:50:04;7.07;;;4.33;;
17384;SDS011;8810;48.680;8.894;2022-12-08T09:52:38;7.13;;;4.27;;
17384;SDS011;8810;48.680;8.894;2022-12-08T09:55:11;6.27;;;4.27;;
17384;SDS011;8810;48.680;8.894;2022-12-08T09:57:45;5.50;;;3.50;;
17384;SDS011;8810;48.680;8.894;2022-12-08T10:00:18;9.70;;;4.83;;
17384;SDS011;8810;48.680;8.894;2022-12-08T10:02:45;7.10;;;3.97;;
17384;SDS011;8810;48.680;8.894;2022-12-08T10:05:13;26.63;;;7.70;;
17384;SDS011;8810;48.680;8.894;2022-12-08T10:07:43;21.03;;;7.10;;
17384;SDS011;8810;48.680;8.894;2022-12-08T10:10:18;9.73;;;5.00;;
17384;SDS011;8810;48.680;8.894;2022-12-08T10:12:53;8.53;;;4.30;;
17384;SDS011;8810;48.680;8.894;2022-12-08T10:18:09;7.17;;;4.60;;
17384;SDS011;8810;48.680;8.894;2022-12-08T10:20:39;8.67;;;5.07;;
17384;SDS011;8810;48.680;8.894;2022-12-08T10:23:12;8.77;;;4.93;;
17384;SDS011;8810;48.680;8.894;2022-12-08T10:25:47;7.07;;;4.20;;
17384;SDS011;8810;48.680;8.894;2022-12-08T10:28:15;9.67;;;4.83;;
17384;SDS011;8810;48.680;8.894;2022-12-08T10:30:41;7.73;;;4.67;;
17384;SDS011;8810;48.680;8.894;2022-12-08T10:33:09;7.83;;;4.90;;
17384;SDS011;8810;48.680;8.894;2022-12-08T10:35:43;6.27;;;4.00;;
17384;SDS011;8810;48.680;8.894;2022-12-08T10:38:17;9.07;;;5.10;;
17384;SDS011;8810;48.680;8.894;2022-12-08T10:40:46;10.00;;;5.43;;
17384;SDS011;8810;48.680;8.894;2022-12-08T10:43:16;10.03;;;5.43;;
17384;SDS011;8810;48.680;8.894;2022-12-08T10:45:46;7.27;;;4.80;;
17384;SDS011;8810;48.680;8.894;2022-12-08T10:48:14;8.03;;;4.90;;
17384;SDS011;8810;48.680;8.894;2022-12-08T10:50:44;8.43;;;5.13;;
17384;SDS011;8810;48.680;8.894;2022-12-08T10:53:13;7.27;;;4.87;;
17384;SDS011;8810;48.680;8.894;2022-12-08T10:55:47;15.87;;;5.50;;
17384;SDS011;8810;48.680;8.894;2022-12-08T10:58:28;11.10;;;5.23;;
17384;SDS011;8810;48.680;8.894;2022-12-08T11:01:00;7.37;;;4.93;;
17384;SDS011;8810;48.680;8.894;2022-12-08T11:03:32;19.53;;;14.10;;
17384;SDS011;8810;48.680;8.894;2022-12-08T11:06:08;11.20;;;5.87;;
17384;SDS011;8810;48.680;8.894;2022-12-08T11:08:43;7.90;;;4.67;;
17384;SDS011;8810;48.680;8.894;2022-12-08T11:11:17;8.47;;;4.80;;
17384;SDS011;8810;48.680;8.894;2022-12-08T11:13:47;8.80;;;4.90;;
17384;SDS011;8810;48.680;8.894;2022-12-08T11:16:16;7.57;;;4.77;;
17384;SDS011;8810;48.680;8.894;2022-12-08T11:18:44;9.53;;;4.77;;
17384;SDS011;8810;48.680;8.894;2022-12-08T11:21:15;10.00;;;5.13;;
17384;SDS011;8810;48.680;8.894;2022-12-08T11:23:45;7.70;;;5.43;;
17384;SDS011;8810;48.680;8.894;2022-12-08T11:26:18;7.60;;;4.80;;
17384;SDS011;8810;48.680;8.894;2022-12-08T11:28:51;8.50;;;5.40;;
17384;SDS011;8810;48.680;8.894;2022-12-08T11:31:24;10.63;;;6.03;;
17384;SDS011;8810;48.680;8.894;2022-12-08T11:33:55;12.47;;;6.03;;
17384;SDS011;8810;48.680;8.894;2022-12-08T11:36:22;9.23;;;5.20;;
17384;SDS011;8810;48.680;8.894;2022-12-08T11:38:54;9.03;;;5.40;;
17384;SDS011;8810;48.680;8.894;2022-12-08T11:41:24;9.13;;;4.87;;
17384;SDS011;8810;48.680;8.894;2022-12-08T11:43:55;7.07;;;4.60;;
17384;SDS011;8810;48.680;8.894;2022-12-08T11:46:30;7.20;;;4.50;;
17384;SDS011;8810;48.680;8.894;2022-12-08T11:49:03;9.63;;;4.67;;
17384;SDS011;8810;48.680;8.894;2022-12-08T11:51:35;7.50;;;4.37;;
17384;SDS011;8810;48.680;8.894;2022-12-08T11:54:09;6.73;;;4.37;;
17384;SDS011;8810;48.680;8.894;2022-12-08T11:56:44;7.53;;;4.40;;
17384;SDS011;8810;48.680;8.894;2022-12-08T11:59:18;8.60;;;4.90;;
17384;SDS011;8810;48.680;8.894;2022-12-08T12:01:50;7.47;;;4.83;;
17384;SDS011;8810;48.680;8.894;2022-12-08T12:04:19;9.70;;;4.60;;
17384;SDS011;8810;48.680;8.894;2022-12-08T12:07:10;8.57;;;5.00;;
17384;SDS011;8810;48.680;8.894;2022-12-08T12:10:07;9.00;;;4.67;;
17384;SDS011;8810;48.680;8.894;2022-12-08T12:12:57;8.90;;;4.60;;
17384;SDS011;8810;48.680;8.894;2022-12-08T12:15:35;8.30;;;4.20;;
17384;SDS011;8810;48.680;8.894;2022-12-08T12:18:18;10.03;;;4.67;;
17384;SDS011;8810;48.680;8.894;2022-12-08T12:20:51;8.23;;;4.20;;
17384;SDS011;8810;48.680;8.894;2022-12-08T12:23:21;7.60;;;4.17;;
17384;SDS011;8810;48.680;8.894;2022-12-08T12:25:55;6.83;;;4.23;;
17384;SDS011;8810;48.680;8.894;2022-12-08T12:28:25;8.33;;;4.37;;
17384;SDS011;8810;48.680;8.894;2022-12-08T12:30:56;10.17;;;4.63;;
17384;SDS011;8810;48.680;8.894;2022-12-08T12:33:29;9.07;;;4.93;;
17384;SDS011;8810;48.680;8.894;2022-12-08T12:35:56;7.43;;;4.47;;
17384;SDS011;8810;48.680;8.894;2022-12-08T12:38:29;8.20;;;4.23;;
17384;SDS011;8810;48.680;8.894;2022-12-08T12:41:15;9.37;;;5.13;;
17384;SDS011;8810;48.680;8.894;2022-12-08T12:46:56;7.77;;;4.10;;
17384;SDS011;8810;48.680;8.894;2022-12-08T12:52:40;7.37;;;4.60;;
17384;SDS011;8810;48.680;8.894;2022-12-08T13:04:28;10.80;;;4.33;;
17384;SDS011;8810;48.680;8.894;2022-12-08T13:07:00;9.50;;;4.27;;
17384;SDS011;8810;48.680;8.894;2022-12-08T13:09:29;8.20;;;4.17;;
17384;SDS011;8810;48.680;8.894;2022-12-08T13:11:58;5.73;;;3.70;;
17384;SDS011;8810;48.680;8.894;2022-12-08T13:14:33;6.63;;;3.80;;
17384;SDS011;8810;48.680;8.894;2022-12-08T13:17:04;6.83;;;4.20;;
17384;SDS011;8810;48.680;8.894;2022-12-08T13:19:37;6.43;;;3.87;;
17384;SDS011;8810;48.680;8.894;2022-12-08T13:28:22;6.03;;;3.80;;
17384;SDS011;8810;48.680;8.894;2022-12-08T13:30:51;6.23;;;3.60;;
17384;SDS011;8810;48.680;8.894;2022-12-08T13:33:29;7.20;;;4.10;;
17384;SDS011;8810;48.680;8.894;2022-12-08T13:36:12;10.47;;;5.47;;
17384;SDS011;8810;48.680;8.894;2022-12-08T13:38:46;10.17;;;4.13;;
17384;SDS011;8810;48.680;8.894;2022-12-08T13:41:19;6.17;;;3.67;;
17384;SDS011;8810;48.680;8.894;2022-12-08T13:43:50;8.60;;;4.20;;
17384;SDS011;8810;48.680;8.894;2022-12-08T13:46:28;7.93;;;4.30;;
17384;SDS011;8810;48.680;8.894;2022-12-08T13:49:00;8.30;;;4.00;;
17384;SDS011;8810;48.680;8.894;2022-12-08T13:51:31;7.80;;;3.97;;
17384;SDS011;8810;48.680;8.894;2022-12-08T13:54:05;8.33;;;3.97;;
17384;SDS011;8810;48.680;8.894;2022-12-08T13:56:36;8.73;;;4.50;;
17384;SDS011;8810;48.680;8.894;2022-12-08T13:59:07;10.30;;;4.00;;
17384;SDS011;8810;48.680;8.894;2022-12-08T14:01:48;7.30;;;3.73;;
17384;SDS011;8810;48.680;8.894;2022-12-08T14:04:16;6.93;;;3.63;;
17384;SDS011;8810;48.680;8.894;2022-12-08T14:06:47;6.67;;;3.47;;
17384;SDS011;8810;48.680;8.894;2022-12-08T14:09:16;8.23;;;3.97;;
17384;SDS011;8810;48.680;8.894;2022-12-08T14:11:46;7.20;;;4.27;;
17384;SDS011;8810;48.680;8.894;2022-12-08T14:14:18;7.97;;;3.90;;
17384;SDS011;8810;48.680;8.894;2022-12-08T14:16:48;6.47;;;3.80;;
17384;SDS011;8810;48.680;8.894;2022-12-08T14:19:19;4.90;;;3.00;;
17384;SDS011;8810;48.680;8.894;2022-12-08T14:21:55;5.97;;;3.40;;
17384;SDS011;8810;48.680;8.894;2022-12-08T14:24:23;4.90;;;3.23;;
17384;SDS011;8810;48.680;8.894;2022-12-08T14:26:53;7.50;;;3.33;;
17384;SDS011;8810;48.680;8.894;2022-12-08T14:29:28;7.37;;;3.33;;
17384;SDS011;8810;48.680;8.894;2022-12-08T14:32:01;4.60;;;3.00;;
17384;SDS011;8810;48.680;8.894;2022-12-08T14:34:28;5.60;;;3.10;;
17384;SDS011;8810;48.680;8.894;2022-12-08T14:36:58;4.40;;;2.90;;
17384;SDS011;8810;48.680;8.894;2022-12-08T14:39:25;5.90;;;3.27;;
17384;SDS011;8810;48.680;8.894;2022-12-08T14:41:58;6.97;;;3.67;;
17384;SDS011;8810;48.680;8.894;2022-12-08T14:44:25;3.90;;;2.67;;
17384;SDS011;8810;48.680;8.894;2022-12-08T14:47:03;5.33;;;3.10;;
17384;SDS011;8810;48.680;8.894;2022-12-08T14:49:31;6.53;;;3.13;;
17384;SDS011;8810;48.680;8.894;2022-12-08T14:52:00;4.60;;;2.73;;
17384;SDS011;8810;48.680;8.894;2022-12-08T14:54:28;4.13;;;2.70;;
17384;SDS011;8810;48.680;8.894;2022-12-08T14:56:56;5.27;;;3.10;;
17384;SDS011;8810;48.680;8.894;2022-12-08T14:59:25;6.90;;;3.57;;
17384;SDS011;8810;48.680;8.894;2022-12-08T15:02:08;5.50;;;3.07;;
17384;SDS011;8810;48.680;8.894;2022-12-08T15:04:37;6.60;;;3.00;;
17384;SDS011;8810;48.680;8.894;2022-12-08T15:07:09;4.77;;;2.83;;
17384;SDS011;8810;48.680;8.894;2022-12-08T15:09:39;5.43;;;3.20;;
17384;SDS011;8810;48.680;8.894;2022-12-08T15:12:18;8.40;;;4.23;;
17384;SDS011;8810;48.680;8.894;2022-12-08T15:14:53;6.47;;;3.87;;
17384;SDS011;8810;48.680;8.894;2022-12-08T15:17:27;8.67;;;4.47;;
17384;SDS011;8810;48.680;8.894;2022-12-08T15:19:58;7.07;;;2.90;;
17384;SDS011;8810;48.680;8.894;2022-12-08T15:22:27;4.10;;;3.10;;
17384;SDS011;8810;48.680;8.894;2022-12-08T15:24:55;8.20;;;3.53;;
17384;SDS011;8810;48.680;8.894;2022-12-08T15:27:23;7.53;;;3.20;;
17384;SDS011;8810;48.680;8.894;2022-12-08T15:29:51;8.30;;;3.40;;
17384;SDS011;8810;48.680;8.894;2022-12-08T15:32:19;7.77;;;3.50;;
17384;SDS011;8810;48.680;8.894;2022-12-08T15:34:47;9.90;;;3.97;;
17384;SDS011;8810;48.680;8.894;2022-12-08T15:37:17;9.47;;;3.93;;